Waikoloa, HI

4:12 AM HST on January 23, 2017 (GMT -1000)
Waikoloa Village | | Change Station
Active Advisory: Small Craft Advisory

Elev 1007 ft 19.95 °N, 155.78 °W | Updated 2 minutes ago

Clear
Clear
64.2 °F
Feels Like 64.2 °F
N
2.0
Wind Variable Wind from East
Gusts 5.0 mph

Today
High -- | Low -- °F
--% Chance of Precip.
Yesterday
High -- | Low -- °F
Precip. -- in
Pressure 30.09 in
Visibility 10.0 miles
Clouds Few 3300 ft
Dew Point 60 °F
Humidity 86%
Rainfall 0.00 in
Snow Depth Not available.
7:00 AM 6:09 PM
Waning Crescent, 18% visible
METAR PHKO 231353Z AUTO 12004KT 10SM FEW033 22/18 A3009 RMK AO2 SLP189 T02220183 TSNO
Pressure 30.09 in
Visibility 10.0 miles
Clouds Few 3300 ft
Dew Point 60 °F
Humidity 86%
Rainfall 0.00 in
Snow Depth Not available.
7:00 AM 6:09 PM
Waning Crescent, 18% visible
METAR PHKO 231353Z AUTO 12004KT 10SM FEW033 22/18 A3009 RMK AO2 SLP189 T02220183 TSNO

Get Your Daily Forecast Email!

Thanks for signing up!

Be on the lookout for a verification email in your inbox.

You'll start receiving the daily forecast at 8 AM.

×

10-Day Weather Forecast

Almanac

Astronomy

Jan. 23, 2017 Rise Set
Actual Time
Civil Twilight
Nautical Twilight
Astronomical Twilight
Moon
Length of Visible Light
Length of Day
Tomorrow will be .
, % of the Moon is Illuminated

Today's Extremes

State Highs State Lows

Community

WunderPhotos

Upload Photos

1,962,540 photos uploaded!

WunderBlog® & News

Nearby

Air Quality

  Air Quality AQ Index Pollutant
Not available.

Snow Depth

Station Depth Elevation

Earthquake Activity

City Distance Mag. Time & Date
Minimum magnitude displayed is 2.5.

Coastal Water Temperatures

Place Temperature

Stations

Nearby Weather Stations

Station Location Temp. Windchill Dew Point Humidity Wind Precip. Elev Updated Type
                   

Watches & Warnings

Small Craft Advisory
Issued: 3:35 AM HST Jan. 23, 2017 – National Weather Service

... Small Craft Advisory remains in effect until 6 PM HST this
evening...

* winds... east 20 to 25 kt.

* Seas... 10 to 12 ft.

Precautionary/preparedness actions...

A Small Craft Advisory means that wind speeds of 25 to 33 knots
and/or seas 10 feet or greater are expected to produce conditions
hazardous to small craft. Inexperienced mariners... especially
those operating smaller vessels... should avoid navigating in
these conditions.